Time;durP1;ratioP1;P1;durP2;ratioP2;P2;SDS_P1;SDS_P2;PMS_P1;PMS_P2;Temp;Humidity;BMP_temperature;BMP_pressure;BME280_temperature;BME280_humidity;BME280_pressure;Samples;Min_cycle;Max_cycle;Signal;HPM_P1;HPM_P2
2022/02/17 00:00:54;;;;;;;2.50;0.80;;;15.80;99.90;;;;;;4983671;28;20593;-76
2022/02/17 00:03:20;;;;;;;1.00;0.40;;;15.70;99.90;;;;;;5000830;28;21239;-77
2022/02/17 00:05:46;;;;;;;1.60;0.43;;;15.70;99.90;;;;;;4999892;28;20585;-76
2022/02/17 00:08:12;;;;;;;2.90;0.60;;;15.70;99.90;;;;;;4981967;28;20610;-76
2022/02/17 00:10:38;;;;;;;1.30;0.40;;;15.70;99.90;;;;;;5002713;28;20174;-76
2022/02/17 00:13:04;;;;;;;1.20;0.47;;;15.60;99.90;;;;;;4983410;28;20598;-77
2022/02/17 00:15:33;;;;;;;1.27;0.40;;;15.60;99.90;;;;;;5001242;28;20182;-76
2022/02/17 00:18:00;;;;;;;1.20;0.40;;;15.60;99.90;;;;;;4985482;28;20992;-77
2022/02/17 00:20:26;;;;;;;1.00;0.40;;;15.60;99.90;;;;;;4991300;28;20991;-77
2022/02/17 00:22:53;;;;;;;1.63;0.40;;;15.60;99.90;;;;;;5003526;28;20566;-76
2022/02/17 00:25:19;;;;;;;1.80;0.40;;;15.50;99.90;;;;;;4996580;28;20566;-76
2022/02/17 00:27:45;;;;;;;1.03;0.50;;;15.50;99.90;;;;;;4996234;28;20766;-77
2022/02/17 00:30:11;;;;;;;1.20;0.50;;;15.50;99.90;;;;;;4996694;28;20677;-77
2022/02/17 00:32:38;;;;;;;1.60;0.60;;;15.50;99.90;;;;;;5012336;28;21134;-77
2022/02/17 00:35:05;;;;;;;1.10;0.50;;;15.50;99.90;;;;;;4993581;28;20593;-76
2022/02/17 00:37:31;;;;;;;1.10;0.40;;;15.50;99.90;;;;;;4983208;28;20613;-77
2022/02/17 00:40:00;;;;;;;1.90;0.50;;;15.50;99.90;;;;;;5004870;28;20578;-77
2022/02/17 00:42:26;;;;;;;1.40;0.40;;;15.40;99.90;;;;;;4995353;28;20573;-76
2022/02/17 00:44:52;;;;;;;1.10;0.40;;;15.40;99.90;;;;;;5004519;28;20703;-76
2022/02/17 00:47:19;;;;;;;1.60;0.60;;;15.40;99.90;;;;;;4997322;28;20217;-76
2022/02/17 00:49:46;;;;;;;1.00;0.43;;;15.40;99.90;;;;;;4978366;28;21130;-77
2022/02/17 00:52:12;;;;;;;2.70;0.60;;;15.40;99.90;;;;;;4996364;28;20616;-76
2022/02/17 00:54:38;;;;;;;1.57;0.50;;;15.40;99.90;;;;;;5004665;28;20911;-76
2022/02/17 00:57:04;;;;;;;1.07;0.47;;;15.30;99.90;;;;;;4985882;28;20582;-76
2022/02/17 00:59:30;;;;;;;1.57;0.50;;;15.40;99.90;;;;;;4994341;28;20586;-76
2022/02/17 01:01:57;;;;;;;2.23;0.50;;;15.40;99.90;;;;;;5005625;28;20639;-77
2022/02/17 01:04:24;;;;;;;1.60;0.60;;;15.40;99.90;;;;;;5003532;28;20633;-77
2022/02/17 01:06:50;;;;;;;1.87;0.60;;;15.40;99.90;;;;;;4996350;28;20568;-77
2022/02/17 01:09:16;;;;;;;1.47;0.70;;;15.50;99.90;;;;;;4994238;28;20644;-76
2022/02/17 01:11:42;;;;;;;2.00;0.60;;;15.50;99.90;;;;;;4992261;28;20569;-77
2022/02/17 01:14:09;;;;;;;3.03;0.60;;;15.50;99.90;;;;;;4988988;28;20590;-76
2022/02/17 01:16:36;;;;;;;2.27;1.00;;;15.50;99.90;;;;;;4985094;28;20570;-77
2022/02/17 01:19:12;;;;;;;1.77;0.50;;;15.50;99.90;;;;;;4978978;28;20776;-77
2022/02/17 01:21:42;;;;;;;1.40;0.50;;;15.50;99.90;;;;;;4993518;28;21020;-76
2022/02/17 01:24:08;;;;;;;1.33;0.50;;;15.50;99.90;;;;;;4971861;28;20633;-76
2022/02/17 01:26:34;;;;;;;2.13;0.57;;;15.40;99.90;;;;;;4993835;28;20590;-76
2022/02/17 01:29:03;;;;;;;1.50;0.47;;;15.40;99.90;;;;;;4995340;28;20611;-77
2022/02/17 01:31:32;;;;;;;2.77;0.70;;;15.40;99.90;;;;;;4979486;28;20728;-76
2022/02/17 01:34:10;;;;;;;3.53;0.60;;;15.50;99.90;;;;;;4993882;28;20573;-77
2022/02/17 01:36:38;;;;;;;2.93;0.60;;;15.50;99.90;;;;;;5006185;28;21103;-77
2022/02/17 01:39:04;;;;;;;3.23;0.67;;;15.40;99.90;;;;;;4986097;28;20611;-77
2022/02/17 01:41:30;;;;;;;3.67;0.70;;;15.40;99.90;;;;;;4986942;28;20582;-77
2022/02/17 01:44:03;;;;;;;3.10;0.70;;;15.40;99.90;;;;;;4984711;28;20334;-77
2022/02/17 01:46:38;;;;;;;7.10;0.90;;;15.40;99.90;;;;;;5005611;28;20581;-77
2022/02/17 01:49:05;;;;;;;4.93;0.90;;;15.40;99.90;;;;;;4973307;28;20620;-77
2022/02/17 01:51:31;;;;;;;3.40;0.90;;;15.40;99.90;;;;;;4992652;28;20693;-77
2022/02/17 01:53:59;;;;;;;5.63;0.97;;;15.40;99.90;;;;;;4988161;28;20589;-76
2022/02/17 01:56:26;;;;;;;4.47;1.00;;;15.40;99.90;;;;;;4968982;28;20705;-77
2022/02/17 01:58:59;;;;;;;3.50;1.00;;;15.40;99.90;;;;;;5003658;28;20613;-76
2022/02/17 02:01:30;;;;;;;4.30;1.13;;;15.40;99.90;;;;;;4971207;28;20585;-77
2022/02/17 02:03:56;;;;;;;5.10;1.10;;;15.40;99.90;;;;;;4984905;28;20641;-76
2022/02/17 02:06:22;;;;;;;3.70;1.13;;;15.40;99.90;;;;;;5003393;28;20593;-76
2022/02/17 02:09:01;;;;;;;8.10;1.40;;;15.30;99.90;;;;;;4971248;28;20206;-77
2022/02/17 02:11:33;;;;;;;6.80;1.87;;;15.30;99.90;;;;;;4984642;28;20609;-77
2022/02/17 02:14:12;;;;;;;8.83;2.10;;;15.30;99.90;;;;;;4969810;28;20687;-77
2022/02/17 02:16:38;;;;;;;3.90;1.30;;;15.20;99.90;;;;;;4995684;28;20622;-77
2022/02/17 02:19:04;;;;;;;6.38;1.20;;;15.20;99.90;;;;;;4983948;28;20989;-77
2022/02/17 02:21:31;;;;;;;5.97;1.37;;;15.20;99.90;;;;;;4984970;28;20198;-77
2022/02/17 02:23:56;;;;;;;7.50;1.90;;;15.10;99.90;;;;;;4986175;28;20612;-77
2022/02/17 02:26:23;;;;;;;8.80;2.10;;;15.10;99.90;;;;;;4987450;28;20193;-77
2022/02/17 02:28:49;;;;;;;11.73;2.93;;;15.00;99.90;;;;;;4979030;28;21211;-77
2022/02/17 02:31:19;;;;;;;8.07;1.83;;;15.10;99.90;;;;;;4966652;28;20586;-77
2022/02/17 02:33:47;;;;;;;9.10;1.70;;;15.00;99.90;;;;;;4997476;28;20599;-76
2022/02/17 02:36:12;;;;;;;9.20;2.00;;;15.10;99.90;;;;;;4998280;28;20593;-76
2022/02/17 02:38:40;;;;;;;14.10;2.20;;;15.00;99.90;;;;;;4967351;28;20293;-77
2022/02/17 02:41:07;;;;;;;7.20;2.37;;;14.90;99.90;;;;;;4994982;28;21061;-77
2022/02/17 02:43:42;;;;;;;10.73;2.10;;;14.90;99.90;;;;;;4984663;28;21203;-76
2022/02/17 02:46:11;;;;;;;9.80;2.10;;;14.80;99.90;;;;;;4985269;28;20612;-77
2022/02/17 02:48:39;;;;;;;11.17;2.43;;;14.70;99.90;;;;;;4986132;28;20931;-77
2022/02/17 02:51:09;;;;;;;10.83;1.80;;;14.70;99.90;;;;;;4983612;28;20582;-76
2022/02/17 02:53:34;;;;;;;9.90;2.50;;;14.60;99.90;;;;;;4976738;28;20606;-76
2022/02/17 02:56:01;;;;;;;10.13;2.40;;;14.70;99.90;;;;;;4985891;28;20597;-76
2022/02/17 02:58:27;;;;;;;9.10;2.20;;;14.60;99.90;;;;;;4985292;28;20614;-76
2022/02/17 03:00:53;;;;;;;8.60;1.90;;;14.60;99.90;;;;;;4984224;28;20578;-76
2022/02/17 03:03:19;;;;;;;11.37;2.97;;;14.50;99.90;;;;;;4990127;28;20225;-75
2022/02/17 03:05:46;;;;;;;11.10;3.03;;;14.50;99.90;;;;;;5004362;28;20574;-76
2022/02/17 03:08:14;;;;;;;8.70;2.47;;;14.60;99.90;;;;;;4967757;28;20201;-75
2022/02/17 03:10:40;;;;;;;8.87;2.57;;;14.60;99.90;;;;;;4968778;28;20578;-75
2022/02/17 03:13:24;;;;;;;15.63;3.07;;;14.70;99.90;;;;;;4967612;28;20608;-76
2022/02/17 03:15:49;;;;;;;10.83;2.60;;;14.70;99.90;;;;;;4969525;28;20601;-76
2022/02/17 03:18:15;;;;;;;8.40;2.40;;;14.70;99.90;;;;;;4993333;28;20597;-76
2022/02/17 03:20:42;;;;;;;14.53;3.40;;;14.70;99.90;;;;;;4984051;28;20182;-76
2022/02/17 03:23:14;;;;;;;9.33;2.50;;;14.60;99.90;;;;;;4970323;28;20593;-76
2022/02/17 03:25:41;;;;;;;12.83;3.30;;;14.50;99.90;;;;;;4983511;28;20628;-76
2022/02/17 03:28:08;;;;;;;11.07;3.00;;;14.50;99.90;;;;;;4969508;28;20613;-76
2022/02/17 03:30:38;;;;;;;11.90;2.50;;;14.50;99.90;;;;;;4985251;28;20588;-76
2022/02/17 03:33:15;;;;;;;8.00;2.63;;;14.40;99.90;;;;;;4983376;28;20633;-76
2022/02/17 03:35:41;;;;;;;14.60;3.87;;;14.30;99.90;;;;;;4993351;28;21194;-76
2022/02/17 03:38:08;;;;;;;14.80;3.10;;;14.30;99.90;;;;;;4984745;28;20618;-76
2022/02/17 03:40:36;;;;;;;10.13;2.23;;;14.30;99.90;;;;;;4992863;28;21079;-75
2022/02/17 03:43:02;;;;;;;11.23;2.97;;;14.30;99.90;;;;;;4986317;28;20577;-76
2022/02/17 03:45:28;;;;;;;14.37;3.00;;;14.30;99.90;;;;;;4981966;28;20597;-76
2022/02/17 03:48:04;;;;;;;10.97;3.73;;;14.30;99.90;;;;;;4988880;28;21062;-76
2022/02/17 03:50:31;;;;;;;10.70;2.97;;;14.30;99.90;;;;;;4994308;28;20572;-76
2022/02/17 03:53:08;;;;;;;10.02;3.33;;;14.40;99.90;;;;;;4984035;28;20578;-76
2022/02/17 03:55:38;;;;;;;10.33;3.00;;;14.40;99.90;;;;;;5000330;28;20182;-76
2022/02/17 03:58:03;;;;;;;14.90;3.07;;;14.30;99.90;;;;;;4993711;28;20611;-76
2022/02/17 04:00:30;;;;;;;10.70;2.40;;;14.30;99.90;;;;;;4965410;28;20737;-75
2022/02/17 04:02:57;;;;;;;17.55;3.03;;;14.30;99.90;;;;;;4987470;28;20605;-76
2022/02/17 04:05:27;;;;;;;7.80;2.73;;;14.30;99.90;;;;;;4984660;28;20201;-76
2022/02/17 04:08:08;;;;;;;9.48;2.50;;;14.30;99.90;;;;;;4992279;28;20612;-76
2022/02/17 04:10:34;;;;;;;13.90;3.50;;;14.20;99.90;;;;;;4982692;28;20652;-76
2022/02/17 04:13:03;;;;;;;10.97;2.20;;;14.20;99.90;;;;;;4991687;28;20182;-76
2022/02/17 04:15:43;;;;;;;7.30;2.67;;;14.20;99.90;;;;;;4983405;28;20566;-76
2022/02/17 04:18:13;;;;;;;13.60;2.83;;;14.10;99.90;;;;;;4989624;28;20209;-75
2022/02/17 04:20:46;;;;;;;10.23;2.47;;;14.10;99.90;;;;;;4974927;28;20586;-75
2022/02/17 04:23:30;;;;;;;11.93;3.67;;;14.10;99.90;;;;;;4992733;28;20625;-76
2022/02/17 04:25:58;;;;;;;13.50;3.25;;;14.10;99.90;;;;;;4982382;28;20219;-76
2022/02/17 04:28:40;;;;;;;15.75;4.35;;;14.10;99.90;;;;;;4983932;28;20202;-75
2022/02/17 04:31:06;;;;;;;10.63;3.28;;;14.10;99.90;;;;;;5000794;28;20269;-75
2022/02/17 04:33:39;;;;;;;11.97;3.33;;;14.10;99.90;;;;;;4978274;28;20185;-76
2022/02/17 04:36:15;;;;;;;14.53;4.20;;;14.10;99.90;;;;;;4997621;28;20942;-76
2022/02/17 04:38:42;;;;;;;19.93;4.10;;;14.10;99.90;;;;;;4987457;28;20605;-76
2022/02/17 04:43:53;;;;;;;13.27;3.57;;;14.10;99.90;;;;;;4984882;28;20663;-77
2022/02/17 04:46:19;;;;;;;11.27;2.77;;;14.00;99.90;;;;;;4990212;28;20586;-77
2022/02/17 04:48:45;;;;;;;10.03;3.27;;;14.00;99.90;;;;;;4969863;28;20610;-76
2022/02/17 04:51:13;;;;;;;11.00;2.63;;;14.00;99.90;;;;;;4984199;28;20986;-76
2022/02/17 04:53:39;;;;;;;8.60;2.80;;;14.00;99.90;;;;;;4984509;28;20601;-76
2022/02/17 04:56:05;;;;;;;13.67;5.20;;;14.00;99.90;;;;;;4984899;28;20578;-76
2022/02/17 04:58:35;;;;;;;12.47;3.40;;;14.00;99.90;;;;;;4982471;28;20206;-76
2022/02/17 05:01:02;;;;;;;8.45;3.22;;;13.90;99.90;;;;;;4994970;28;20582;-76
2022/02/17 05:03:46;;;;;;;9.83;2.37;;;13.90;99.90;;;;;;4989711;28;20202;-76
2022/02/17 05:06:16;;;;;;;9.30;3.07;;;13.90;99.90;;;;;;4969258;28;20589;-77
2022/02/17 05:08:43;;;;;;;14.75;3.60;;;13.90;99.90;;;;;;4988525;28;21201;-76
2022/02/17 05:11:09;;;;;;;16.83;4.60;;;13.90;99.90;;;;;;4994245;28;20189;-76
2022/02/17 05:13:37;;;;;;;13.68;3.45;;;13.90;99.90;;;;;;4993739;28;20585;-76
2022/02/17 05:16:04;;;;;;;10.57;3.77;;;13.80;99.90;;;;;;4973473;28;20183;-77
2022/02/17 05:18:30;;;;;;;11.13;3.75;;;13.80;99.90;;;;;;4996189;28;20754;-76
2022/02/17 05:20:57;;;;;;;17.00;3.80;;;13.80;99.90;;;;;;4968917;28;20662;-76
2022/02/17 05:23:28;;;;;;;11.70;3.92;;;13.80;99.90;;;;;;5000636;28;20644;-76
2022/02/17 05:26:12;;;;;;;15.10;4.30;;;13.70;99.90;;;;;;5005880;28;20179;-76
2022/02/17 05:28:50;;;;;;;12.23;3.25;;;13.70;99.90;;;;;;4989115;28;20207;-75
2022/02/17 05:31:29;;;;;;;16.83;3.75;;;13.60;99.90;;;;;;5009686;28;20185;-75
2022/02/17 05:34:14;;;;;;;18.17;3.75;;;13.60;99.90;;;;;;4968723;28;20191;-76
2022/02/17 05:37:02;;;;;;;16.33;5.00;;;13.50;99.90;;;;;;4986204;28;20195;-76
2022/02/17 05:39:37;;;;;;;15.90;4.10;;;13.40;99.90;;;;;;4985582;28;20573;-76
2022/02/17 05:42:17;;;;;;;23.30;4.90;;;13.40;99.90;;;;;;5010016;28;20308;-75
2022/02/17 05:44:42;;;;;;;15.40;4.83;;;13.30;99.90;;;;;;4999198;28;20695;-75
2022/02/17 05:47:08;;;;;;;13.00;3.27;;;13.30;99.90;;;;;;5006785;28;21319;-75
2022/02/17 05:49:34;;;;;;;14.65;4.05;;;13.30;99.90;;;;;;5002888;28;20559;-76
2022/02/17 05:52:00;;;;;;;16.90;3.93;;;13.20;99.90;;;;;;4992930;28;20175;-76
2022/02/17 05:54:26;;;;;;;21.77;4.93;;;13.20;99.90;;;;;;5005859;28;20187;-77
2022/02/17 05:56:51;;;;;;;14.13;5.00;;;13.20;99.90;;;;;;5001387;28;20194;-76
2022/02/17 05:59:17;;;;;;;18.97;4.60;;;13.20;99.90;;;;;;4982918;28;20764;-77
2022/02/17 06:01:43;;;;;;;18.17;5.37;;;13.20;99.90;;;;;;5011496;28;20193;-75
2022/02/17 06:04:09;;;;;;;21.00;5.30;;;13.20;99.90;;;;;;5004061;28;20217;-76
2022/02/17 06:06:36;;;;;;;19.27;4.10;;;13.10;99.90;;;;;;4989107;28;20200;-78
2022/02/17 06:09:04;;;;;;;16.08;3.97;;;13.20;99.90;;;;;;5008407;28;20671;-77
2022/02/17 06:11:30;;;;;;;11.63;4.43;;;13.10;99.90;;;;;;5002335;28;20215;-77
2022/02/17 06:13:57;;;;;;;18.48;5.15;;;13.00;99.90;;;;;;4978402;28;20189;-76
2022/02/17 06:16:22;;;;;;;20.03;4.10;;;13.10;99.90;;;;;;5003959;28;20194;-76
2022/02/17 06:18:49;;;;;;;17.70;4.40;;;13.10;99.90;;;;;;4985071;28;20225;-77
2022/02/17 06:21:15;;;;;;;22.02;4.63;;;13.10;99.90;;;;;;4983381;28;20948;-76
2022/02/17 06:23:41;;;;;;;18.20;4.13;;;13.10;99.90;;;;;;5007328;28;20541;-77
2022/02/17 06:26:06;;;;;;;26.00;5.73;;;13.10;99.90;;;;;;4991379;28;20179;-76
2022/02/17 06:28:32;;;;;;;18.13;4.50;;;13.10;99.90;;;;;;5004105;28;20194;-77
2022/02/17 06:30:58;;;;;;;17.80;5.57;;;13.00;99.90;;;;;;4987269;28;20910;-76
2022/02/17 06:33:23;;;;;;;24.57;5.00;;;13.00;99.90;;;;;;5004134;28;20179;-76
2022/02/17 06:35:49;;;;;;;20.60;4.23;;;13.00;99.90;;;;;;5002764;28;20595;-76
2022/02/17 06:38:15;;;;;;;17.40;4.60;;;13.00;99.90;;;;;;4997048;28;20198;-76
2022/02/17 06:40:41;;;;;;;15.30;4.20;;;12.90;99.90;;;;;;4993767;28;20183;-76
2022/02/17 06:43:08;;;;;;;16.83;4.33;;;12.80;99.90;;;;;;4988678;28;20667;-76
2022/02/17 06:45:35;;;;;;;20.08;4.10;;;12.90;99.90;;;;;;4991935;28;20968;-75
2022/02/17 06:48:04;;;;;;;17.63;5.80;;;12.80;99.90;;;;;;4990052;28;20197;-76
2022/02/17 06:50:31;;;;;;;21.75;5.60;;;12.80;99.90;;;;;;5010576;28;20193;-77
2022/02/17 06:52:58;;;;;;;19.35;4.75;;;12.80;99.90;;;;;;4983130;28;20198;-76
2022/02/17 06:55:24;;;;;;;14.20;3.80;;;12.60;99.90;;;;;;5004399;28;20182;-76
2022/02/17 06:57:50;;;;;;;16.00;4.45;;;12.60;99.90;;;;;;5005185;28;20669;-76
2022/02/17 07:00:19;;;;;;;16.20;5.10;;;12.50;99.90;;;;;;5004359;28;20179;-75
2022/02/17 07:02:51;;;;;;;18.25;4.45;;;12.50;99.90;;;;;;4992867;28;20185;-75
2022/02/17 07:05:19;;;;;;;16.42;4.22;;;12.50;99.90;;;;;;5000655;28;20256;-76
2022/02/17 07:07:45;;;;;;;19.58;6.65;;;12.50;99.90;;;;;;4977464;28;20199;-75
2022/02/17 07:10:11;;;;;;;17.63;5.68;;;12.40;99.90;;;;;;4993433;28;20175;-75
2022/02/17 07:12:37;;;;;;;20.67;5.83;;;12.40;99.90;;;;;;4976378;28;20209;-75
2022/02/17 07:15:03;;;;;;;18.60;3.95;;;12.30;99.90;;;;;;4991793;28;20593;-76
2022/02/17 07:17:29;;;;;;;16.25;5.05;;;12.30;99.90;;;;;;5005208;28;20222;-76
2022/02/17 07:19:55;;;;;;;16.98;4.95;;;12.30;99.90;;;;;;5002023;28;20179;-79
2022/02/17 07:22:21;;;;;;;21.63;4.60;;;12.40;99.90;;;;;;5004759;28;20261;-78
2022/02/17 07:24:48;;;;;;;15.33;4.03;;;12.40;99.90;;;;;;5011971;28;20697;-76
2022/02/17 07:27:14;;;;;;;16.08;4.95;;;12.30;99.90;;;;;;4974427;28;20217;-76
2022/02/17 07:29:39;;;;;;;17.30;4.63;;;12.40;99.90;;;;;;5003253;28;20206;-76
2022/02/17 07:32:08;;;;;;;18.37;3.60;;;12.50;99.90;;;;;;5004032;28;20654;-75
2022/02/17 07:34:34;;;;;;;20.00;5.32;;;12.50;99.90;;;;;;4983028;28;20594;-76
2022/02/17 07:37:00;;;;;;;22.03;5.90;;;12.40;99.90;;;;;;5003931;28;20795;-76
2022/02/17 07:39:28;;;;;;;13.50;5.18;;;12.30;99.90;;;;;;5000897;28;20621;-75
2022/02/17 07:41:53;;;;;;;20.83;5.77;;;12.40;99.90;;;;;;5001471;28;20683;-75
2022/02/17 07:44:25;;;;;;;24.50;5.40;;;12.50;99.90;;;;;;4985805;28;20272;-75
2022/02/17 07:46:54;;;;;;;21.10;5.60;;;12.60;99.90;;;;;;4995533;28;20182;-76
2022/02/17 07:49:20;;;;;;;19.85;5.07;;;12.60;99.90;;;;;;5015443;28;20560;-77
2022/02/17 07:51:46;;;;;;;18.80;5.13;;;12.60;99.90;;;;;;5005912;28;20181;-77
2022/02/17 07:54:11;;;;;;;24.07;6.00;;;12.70;99.90;;;;;;5008872;28;20976;-77
2022/02/17 07:56:37;;;;;;;18.63;4.87;;;12.70;99.90;;;;;;5014986;28;20178;-77
2022/02/17 07:59:05;;;;;;;13.75;4.65;;;12.70;99.90;;;;;;5001531;28;20213;-77
2022/02/17 08:01:30;;;;;;;20.87;4.83;;;12.80;99.90;;;;;;5002216;28;20174;-77
2022/02/17 08:03:56;;;;;;;15.93;4.00;;;12.80;99.90;;;;;;4977286;28;20740;-77
2022/02/17 08:06:22;;;;;;;21.97;6.40;;;12.80;99.90;;;;;;4990703;28;20177;-76
2022/02/17 08:08:49;;;;;;;17.07;5.03;;;12.90;99.90;;;;;;5002203;28;20210;-77
2022/02/17 08:11:16;;;;;;;15.43;4.65;;;12.80;99.90;;;;;;5000420;28;20527;-78
2022/02/17 08:13:42;;;;;;;24.83;5.15;;;12.70;99.90;;;;;;5003421;28;20181;-77
2022/02/17 08:16:10;;;;;;;18.40;4.60;;;12.70;99.90;;;;;;4983765;28;20549;-79
2022/02/17 08:18:36;;;;;;;14.85;4.47;;;12.60;99.90;;;;;;5001021;28;20206;-78
2022/02/17 08:21:03;;;;;;;15.20;4.55;;;12.60;99.90;;;;;;4998020;28;20186;-78
2022/02/17 08:23:33;;;;;;;14.55;3.65;;;12.50;99.90;;;;;;5005406;28;20233;-78
2022/02/17 08:26:00;;;;;;;16.95;4.63;;;12.50;99.90;;;;;;5003704;28;20841;-78
2022/02/17 08:28:27;;;;;;;17.98;4.75;;;12.60;99.90;;;;;;4991293;28;20199;-77
2022/02/17 08:30:53;;;;;;;13.20;5.30;;;12.70;99.90;;;;;;5000721;28;20770;-77
2022/02/17 08:33:19;;;;;;;22.87;4.90;;;12.70;99.90;;;;;;5000996;28;20549;-77
2022/02/17 08:35:45;;;;;;;18.60;5.40;;;12.80;99.90;;;;;;5003005;28;20736;-78
2022/02/17 08:38:10;;;;;;;11.87;4.00;;;12.70;99.90;;;;;;5003584;28;20205;-78
2022/02/17 08:40:37;;;;;;;19.30;5.27;;;12.80;99.90;;;;;;5000573;28;20545;-78
2022/02/17 08:43:09;;;;;;;16.35;5.65;;;12.90;99.90;;;;;;5001166;28;20178;-77
2022/02/17 08:45:37;;;;;;;17.02;4.78;;;13.00;99.90;;;;;;5002181;28;20190;-78
2022/02/17 08:48:04;;;;;;;18.05;5.18;;;13.00;99.90;;;;;;4994160;28;20221;-76
2022/02/17 08:50:30;;;;;;;20.13;5.47;;;13.10;99.90;;;;;;5006962;28;20171;-77
2022/02/17 08:52:56;;;;;;;20.47;5.30;;;13.30;99.90;;;;;;5001842;28;20681;-77
2022/02/17 08:55:22;;;;;;;14.27;4.83;;;13.40;99.90;;;;;;4990147;28;20178;-77
2022/02/17 08:57:48;;;;;;;19.33;5.88;;;13.30;99.90;;;;;;5005018;28;20718;-76
2022/02/17 09:00:15;;;;;;;17.95;3.75;;;13.20;99.90;;;;;;4985443;28;20188;-77
2022/02/17 09:02:41;;;;;;;19.10;5.47;;;13.20;99.90;;;;;;4997132;28;20539;-78
2022/02/17 09:05:07;;;;;;;15.23;4.50;;;13.60;99.90;;;;;;4993500;28;20740;-78
2022/02/17 09:07:33;;;;;;;20.40;4.83;;;13.90;99.90;;;;;;5006500;28;20229;-78
2022/02/17 09:09:59;;;;;;;17.63;5.18;;;14.00;99.90;;;;;;4986120;28;20724;-77
2022/02/17 09:12:32;;;;;;;16.75;5.10;;;14.30;99.90;;;;;;4977418;28;20711;-78
2022/02/17 09:14:58;;;;;;;16.83;4.90;;;14.20;99.90;;;;;;5001291;28;20197;-78
2022/02/17 09:17:25;;;;;;;12.70;5.00;;;14.30;99.90;;;;;;4968762;28;20719;-77
2022/02/17 09:19:51;;;;;;;18.73;4.40;;;14.50;99.90;;;;;;4988381;28;20720;-77
2022/02/17 09:22:19;;;;;;;22.70;6.10;;;14.70;99.90;;;;;;4970218;28;20179;-77
2022/02/17 09:24:45;;;;;;;16.83;4.90;;;15.20;99.90;;;;;;5006257;28;20795;-77
2022/02/17 09:27:10;;;;;;;14.10;4.53;;;15.60;99.90;;;;;;4994202;28;21184;-77
2022/02/17 09:29:36;;;;;;;16.17;4.10;;;16.00;99.90;;;;;;5005671;28;20712;-76
2022/02/17 09:32:02;;;;;;;12.87;3.97;;;16.70;99.90;;;;;;5007559;28;20585;-77
2022/02/17 09:34:31;;;;;;;20.03;4.97;;;17.40;99.90;;;;;;5006892;28;20197;-77
2022/02/17 09:36:56;;;;;;;13.40;3.77;;;17.80;99.90;;;;;;5005321;28;20938;-78
2022/02/17 09:39:22;;;;;;;12.20;4.80;;;17.90;99.90;;;;;;5000803;28;20210;-78
2022/02/17 09:41:49;;;;;;;16.87;5.30;;;18.10;99.90;;;;;;5003018;28;20266;-77
2022/02/17 09:44:19;;;;;;;11.32;3.85;;;18.20;99.90;;;;;;4975710;28;20870;-77
2022/02/17 09:46:47;;;;;;;13.45;5.25;;;18.50;99.90;;;;;;4992259;28;20751;-77
2022/02/17 09:49:19;;;;;;;12.90;4.63;;;18.60;99.50;;;;;;4994937;28;20190;-78
2022/02/17 09:51:46;;;;;;;9.73;4.10;;;19.20;99.10;;;;;;5006203;28;20569;-77
2022/02/17 09:54:12;;;;;;;13.32;3.90;;;19.80;99.90;;;;;;5009629;28;20734;-77
2022/02/17 09:56:39;;;;;;;8.20;3.10;;;19.70;94.20;;;;;;4988383;28;20193;-77
2022/02/17 09:59:05;;;;;;;10.93;3.60;;;19.90;96.40;;;;;;4982896;28;20717;-78
2022/02/17 10:01:31;;;;;;;9.18;3.25;;;19.80;92.90;;;;;;4992914;28;20780;-77
2022/02/17 10:04:16;;;;;;;9.93;3.03;;;19.60;90.50;;;;;;4994409;28;20229;-78
2022/02/17 10:06:43;;;;;;;9.85;3.30;;;19.70;91.30;;;;;;5001494;28;20693;-77
2022/02/17 10:09:09;;;;;;;7.10;2.90;;;19.40;89.00;;;;;;4986666;28;20197;-77
2022/02/17 10:11:36;;;;;;;8.57;3.10;;;19.80;90.80;;;;;;4985909;28;20595;-78
2022/02/17 10:14:11;;;;;;;7.93;2.80;;;19.70;89.10;;;;;;5001500;28;20720;-77
2022/02/17 10:16:56;;;;;;;9.10;3.57;;;19.20;85.50;;;;;;4977447;28;20213;-77
2022/02/17 10:19:25;;;;;;;8.68;2.83;;;19.50;90.80;;;;;;4994272;28;20736;-77
2022/02/17 10:22:01;;;;;;;12.27;3.07;;;19.70;90.80;;;;;;5002354;28;20206;-76
2022/02/17 10:25:00;;;;;;;9.07;2.73;;;19.60;88.30;;;;;;5001784;28;20625;-77
2022/02/17 10:27:28;;;;;;;9.25;3.10;;;19.40;84.00;;;;;;4976679;28;20737;-77
2022/02/17 10:30:13;;;;;;;7.93;3.80;;;18.90;83.70;;;;;;4976920;28;20175;-76
2022/02/17 10:32:54;;;;;;;15.07;3.10;;;18.80;83.30;;;;;;5001764;28;20620;-76
2022/02/17 10:35:20;;;;;;;12.40;4.50;;;18.80;85.30;;;;;;5007706;28;20670;-77
2022/02/17 10:37:47;;;;;;;10.43;3.27;;;18.80;87.90;;;;;;5003923;28;21603;-77
2022/02/17 10:40:27;;;;;;;7.32;2.35;;;18.90;83.50;;;;;;5000800;28;21377;-78
2022/02/17 10:43:05;;;;;;;8.52;2.78;;;18.90;82.30;;;;;;5000679;28;20729;-77
2022/02/17 10:45:31;;;;;;;5.90;2.00;;;18.80;79.30;;;;;;5002454;28;20242;-77
2022/02/17 10:48:12;;;;;;;9.00;2.33;;;18.80;83.10;;;;;;4992264;28;21324;-77
2022/02/17 10:50:38;;;;;;;6.35;2.40;;;18.80;78.90;;;;;;5000203;28;21098;-77
2022/02/17 10:53:17;;;;;;;6.57;2.13;;;18.40;74.50;;;;;;5002854;28;20244;-76
2022/02/17 10:55:52;;;;;;;8.00;1.57;;;18.30;77.70;;;;;;5001077;28;20586;-76
2022/02/17 10:58:18;;;;;;;6.90;1.77;;;18.40;80.10;;;;;;5002354;28;20977;-76
2022/02/17 11:00:45;;;;;;;6.07;1.80;;;18.50;83.30;;;;;;5002916;28;20585;-76
2022/02/17 11:03:11;;;;;;;6.38;2.13;;;18.50;82.60;;;;;;5003590;28;20790;-78
2022/02/17 11:05:38;;;;;;;6.30;2.40;;;18.40;80.70;;;;;;4994721;28;20202;-78
2022/02/17 11:08:05;;;;;;;6.77;1.73;;;18.60;80.90;;;;;;5002766;28;20218;-78
2022/02/17 11:10:31;;;;;;;6.83;1.60;;;18.70;80.10;;;;;;5011070;28;20593;-78
2022/02/17 11:12:58;;;;;;;3.50;1.40;;;18.70;79.30;;;;;;5017819;28;20601;-78
2022/02/17 11:15:24;;;;;;;5.30;1.57;;;18.80;77.10;;;;;;5007103;28;20674;-78
2022/02/17 11:17:50;;;;;;;4.85;2.00;;;18.80;74.90;;;;;;5006707;28;20729;-77
2022/02/17 11:20:18;;;;;;;3.80;1.70;;;18.70;71.70;;;;;;5008946;28;20713;-77
2022/02/17 11:22:47;;;;;;;6.47;2.63;;;18.50;72.20;;;;;;5009792;28;20715;-78
2022/02/17 11:25:13;;;;;;;7.43;2.07;;;18.40;69.30;;;;;;5002105;28;20249;-78
2022/02/17 11:28:03;;;;;;;6.70;2.10;;;18.10;71.00;;;;;;5007581;28;20633;-77
2022/02/17 11:30:31;;;;;;;5.80;1.87;;;18.00;73.30;;;;;;5002469;28;20585;-79
2022/02/17 11:33:22;;;;;;;7.40;2.40;;;18.10;74.90;;;;;;5004179;28;20569;-78
2022/02/17 11:35:57;;;;;;;5.60;1.70;;;18.10;73.20;;;;;;4998253;28;20578;-78
2022/02/17 11:38:36;;;;;;;6.73;2.60;;;18.20;77.50;;;;;;4995945;28;21378;-77
2022/02/17 11:41:11;;;;;;;5.20;1.90;;;18.30;72.40;;;;;;4996047;28;20638;-77
2022/02/17 11:43:40;;;;;;;6.73;2.10;;;18.50;72.50;;;;;;4986641;28;20625;-77
2022/02/17 11:46:06;;;;;;;8.33;2.47;;;18.40;71.90;;;;;;4993744;28;20617;-78
2022/02/17 11:48:36;;;;;;;9.90;2.43;;;18.30;70.40;;;;;;4976827;28;20633;-76
2022/02/17 11:51:21;;;;;;;10.60;1.97;;;18.00;72.10;;;;;;4999242;28;20570;-77
2022/02/17 11:54:16;;;;;;;6.57;1.77;;;17.80;71.10;;;;;;4987684;28;20929;-77
2022/02/17 11:56:52;;;;;;;5.57;2.50;;;17.60;71.30;;;;;;4999089;28;20590;-76
2022/02/17 11:59:24;;;;;;;6.50;2.63;;;17.20;71.40;;;;;;4999952;28;21319;-77
2022/02/17 12:01:51;;;;;;;9.53;3.20;;;16.80;72.70;;;;;;5003542;28;20601;-78
2022/02/17 12:04:18;;;;;;;5.70;2.63;;;16.60;73.90;;;;;;5002174;28;21024;-76
2022/02/17 12:06:52;;;;;;;9.73;2.60;;;16.40;73.90;;;;;;5002150;28;20627;-77
2022/02/17 12:09:30;;;;;;;6.50;2.00;;;16.30;72.80;;;;;;4984926;28;20657;-77
2022/02/17 12:11:56;;;;;;;7.70;1.63;;;16.20;70.00;;;;;;5000961;28;21118;-77
2022/02/17 12:14:23;;;;;;;9.00;1.70;;;16.00;69.10;;;;;;4992607;28;20635;-76
2022/02/17 12:16:52;;;;;;;7.20;1.80;;;15.90;69.10;;;;;;5000661;28;20578;-78
2022/02/17 12:19:19;;;;;;;5.40;1.73;;;15.80;68.90;;;;;;5009168;28;21227;-79
2022/02/17 12:21:46;;;;;;;4.90;1.53;;;15.60;70.20;;;;;;5002205;28;20580;-79
2022/02/17 12:24:14;;;;;;;7.25;2.22;;;15.50;71.00;;;;;;5000245;28;20772;-78
2022/02/17 12:26:47;;;;;;;3.90;1.87;;;15.20;69.30;;;;;;5000827;28;20196;-77
2022/02/17 12:29:26;;;;;;;7.10;1.77;;;15.20;71.20;;;;;;4985334;28;20609;-78
2022/02/17 12:31:54;;;;;;;3.50;1.40;;;15.20;71.90;;;;;;4985168;28;21002;-79
2022/02/17 12:34:20;;;;;;;6.13;1.53;;;15.20;73.70;;;;;;4993346;28;20603;-79
2022/02/17 12:36:46;;;;;;;6.97;1.77;;;15.40;74.30;;;;;;4999511;28;21259;-79
2022/02/17 12:39:12;;;;;;;9.67;1.93;;;15.40;75.00;;;;;;4985366;28;20655;-79
2022/02/17 12:41:38;;;;;;;5.37;1.50;;;15.50;75.60;;;;;;4999908;28;20536;-77
2022/02/17 12:44:06;;;;;;;8.17;1.77;;;15.60;76.20;;;;;;5000880;28;20632;-78
2022/02/17 12:46:32;;;;;;;5.07;1.73;;;15.70;76.30;;;;;;5001942;28;20194;-78
2022/02/17 12:49:06;;;;;;;7.90;1.73;;;15.70;75.80;;;;;;5000302;28;20594;-78
2022/02/17 12:51:34;;;;;;;2.77;1.20;;;15.70;74.00;;;;;;4983373;28;20596;-78